Tuesday, July 17, 2018, 12:20 AM CDT
Back to Local

KDHT, Dalhart Municipal Airport

Location: Dalhart, TX, United States Lat: 36.017
Local Time: 12:20 AM CDT ( 5:20 GMT) Lon: -102.55
Time Zone: US/Central Elev: 3989 ft

Show me the last for .
Show Decoded

2018-07-16 23:53 METAR KDHT 170453Z AUTO 16005KT 10SM SCT110 26/15 A3017 RMK AO2 SLP149 T02560150
                 =
2018-07-16 22:53 METAR KDHT 170353Z AUTO 15005KT 10SM CLR 26/14 A3016 RMK AO2 SLP148 T02610139 =
2018-07-16 21:53 METAR KDHT 170253Z AUTO 14006KT 10SM CLR 26/14 A3014 RMK AO2 SLP143 T02610144
                 53010 =
2018-07-16 20:53 METAR KDHT 170153Z AUTO 17005KT 10SM CLR 27/14 A3013 RMK AO2 SLP139 T02720144 =
2018-07-16 19:53 METAR KDHT 170053Z AUTO 17011KT 10SM CLR 28/15 A3012 RMK AO2 WSHFT 0026 SLP138
                 T02830150 =
2018-07-16 19:49 METAR KDHT 170049Z 00000KT 10SM CLR 29/25 A2993 =
2018-07-16 19:46 METAR KDHT 170046Z AUTO 17011KT 10SM CLR 28/14 A3011 RMK AO2 WSHFT 0026
                 T02830144 =
2018-07-16 18:53 METAR KDHT 162353Z AUTO 22007KT 10SM FEW090 29/13 A3011 RMK AO2 LTG DSNT SE AND
                 S SLP137 T02940133 10339 20272 55006 =
2018-07-16 17:53 METAR KDHT 162253Z AUTO 02007KT 10SM CLR 29/13 A3011 RMK AO2 LTG DSNT E AND S
                 SLP136 T02940133 =
2018-07-16 16:53 METAR KDHT 162153Z AUTO 02013KT 10SM FEW095 28/16 A3012 RMK AO2 SLP143 T02830156
                 =
2018-07-16 15:25 METAR KDHT 162025Z AUTO 17009G14KT 10SM VCTS CLR 33/13 A3013 RMK AO2 LTG DSNT N
                 AND NE T03280128 =
2018-07-16 14:53 METAR KDHT 161953Z AUTO 17011KT 10SM FEW070 FEW085 SCT100 32/13 A3014 RMK AO2
                 LTG DSNT N AND NW SLP140 T03220133 =
2018-07-16 13:53 METAR KDHT 161853Z AUTO VRB06KT 10SM SCT070 33/14 A3016 RMK AO2 SLP146 T03280144
                 =
2018-07-16 12:53 METAR KDHT 161753Z AUTO VRB05KT 10SM CLR 32/15 A3018 RMK AO2 SLP152 T03220150
                 10322 20183 55004 =
2018-07-16 11:53 METAR KDHT 161653Z AUTO 11006KT 10SM CLR 30/15 A3017 RMK AO2 SLP153 T03000150 =
2018-07-16 10:53 METAR KDHT 161553Z AUTO 36007KT 10SM CLR 28/17 A3019 RMK AO2 SLP158 T02830167 =
2018-07-16 09:53 METAR KDHT 161453Z AUTO 36012KT 10SM CLR 26/17 A3019 RMK AO2 SLP159 T02610167
                 50010 =
2018-07-16 08:53 METAR KDHT 161353Z AUTO 36005KT 10SM FEW085 23/16 A3020 RMK AO2 SLP163 T02330161
                 =
2018-07-16 07:53 METAR KDHT 161253Z AUTO 34005KT 10SM CLR 20/16 A3018 RMK AO2 SLP157 T02000156 =
2018-07-16 06:53 METAR KDHT 161153Z AUTO 33007KT 10SM CLR 18/15 A3016 RMK AO2 SLP149 T01830150
                 10222 20172 51005 =
2018-07-16 05:53 METAR KDHT 161053Z AUTO 30005KT 10SM CLR 18/15 A3015 RMK AO2 SLP147 T01780150 =
2018-07-16 04:53 METAR KDHT 160953Z AUTO 24004KT 10SM CLR 17/15 A3014 RMK AO2 SLP145 T01720150 =
2018-07-16 03:53 METAR KDHT 160853Z AUTO 00000KT 10SM CLR 21/15 A3014 RMK AO2 SLP138 T02060150
                 58005 =
2018-07-16 02:53 METAR KDHT 160753Z AUTO 31005KT 10SM FEW110 21/15 A3015 RMK AO2 SLP141 T02060150
                 =
2018-07-16 01:53 METAR KDHT 160653Z AUTO 31007KT 10SM BKN100 22/15 A3016 RMK AO2 SLP146 T02170150
                 =
2018-07-16 00:53 METAR KDHT 160553Z AUTO 17005KT 10SM CLR 22/14 A3016 RMK AO2 SLP144 T02220144
                 10322 20211 403610172 50016 =

Support USWX by starting your Amazon purchase here.